sensor_id;sensor_type;location;lat;lon;timestamp;temperature;humidity
30851;DHT22;17567;48.382;9.102;2023-10-31T00:03:03;10.20;99.90
30851;DHT22;17567;48.382;9.102;2023-10-31T00:08:04;10.30;99.90
30851;DHT22;17567;48.382;9.102;2023-10-31T00:13:05;10.20;99.90
30851;DHT22;17567;48.382;9.102;2023-10-31T00:18:06;10.30;99.90
30851;DHT22;17567;48.382;9.102;2023-10-31T00:23:07;10.20;99.90
30851;DHT22;17567;48.382;9.102;2023-10-31T00:28:07;10.40;99.90
30851;DHT22;17567;48.382;9.102;2023-10-31T00:33:08;10.30;99.90
30851;DHT22;17567;48.382;9.102;2023-10-31T00:38:08;10.30;99.90
30851;DHT22;17567;48.382;9.102;2023-10-31T00:43:09;10.40;99.90
30851;DHT22;17567;48.382;9.102;2023-10-31T00:48:09;10.40;99.90
30851;DHT22;17567;48.382;9.102;2023-10-31T00:53:10;10.40;99.90
30851;DHT22;17567;48.382;9.102;2023-10-31T00:58:11;10.30;99.90
30851;DHT22;17567;48.382;9.102;2023-10-31T01:03:12;10.40;99.90
30851;DHT22;17567;48.382;9.102;2023-10-31T01:08:13;10.40;99.90
30851;DHT22;17567;48.382;9.102;2023-10-31T01:13:13;10.30;99.90
30851;DHT22;17567;48.382;9.102;2023-10-31T01:18:14;10.30;99.90
30851;DHT22;17567;48.382;9.102;2023-10-31T01:23:15;10.20;99.90
30851;DHT22;17567;48.382;9.102;2023-10-31T01:28:15;10.40;99.90
30851;DHT22;17567;48.382;9.102;2023-10-31T01:33:16;10.30;99.90
30851;DHT22;17567;48.382;9.102;2023-10-31T01:38:16;10.10;99.90
30851;DHT22;17567;48.382;9.102;2023-10-31T01:43:36;10.00;99.90
30851;DHT22;17567;48.382;9.102;2023-10-31T01:48:37;9.90;99.90
30851;DHT22;17567;48.382;9.102;2023-10-31T01:53:38;9.90;99.90
30851;DHT22;17567;48.382;9.102;2023-10-31T01:58:39;9.90;99.90
30851;DHT22;17567;48.382;9.102;2023-10-31T02:03:40;9.90;99.90
30851;DHT22;17567;48.382;9.102;2023-10-31T02:08:40;9.80;99.90
30851;DHT22;17567;48.382;9.102;2023-10-31T02:13:41;9.80;99.90
30851;DHT22;17567;48.382;9.102;2023-10-31T02:18:42;9.70;99.90
30851;DHT22;17567;48.382;9.102;2023-10-31T02:23:43;9.70;99.90
30851;DHT22;17567;48.382;9.102;2023-10-31T02:28:55;9.80;99.90
30851;DHT22;17567;48.382;9.102;2023-10-31T02:33:56;9.70;99.90
30851;DHT22;17567;48.382;9.102;2023-10-31T02:38:57;9.70;99.90
30851;DHT22;17567;48.382;9.102;2023-10-31T02:43:57;9.70;99.90
30851;DHT22;17567;48.382;9.102;2023-10-31T02:48:58;9.70;99.90
30851;DHT22;17567;48.382;9.102;2023-10-31T02:53:59;9.70;99.90
30851;DHT22;17567;48.382;9.102;2023-10-31T02:58:59;9.60;99.90
30851;DHT22;17567;48.382;9.102;2023-10-31T03:04:00;9.60;99.90
30851;DHT22;17567;48.382;9.102;2023-10-31T03:09:00;9.60;99.90
30851;DHT22;17567;48.382;9.102;2023-10-31T03:14:01;9.50;99.90
30851;DHT22;17567;48.382;9.102;2023-10-31T03:19:02;9.60;99.90
30851;DHT22;17567;48.382;9.102;2023-10-31T03:24:03;9.50;99.90
30851;DHT22;17567;48.382;9.102;2023-10-31T03:29:03;9.50;99.90
30851;DHT22;17567;48.382;9.102;2023-10-31T03:34:04;9.40;99.90
30851;DHT22;17567;48.382;9.102;2023-10-31T03:39:05;9.40;99.90
30851;DHT22;17567;48.382;9.102;2023-10-31T03:44:05;9.40;99.90
30851;DHT22;17567;48.382;9.102;2023-10-31T03:49:06;9.30;99.90
30851;DHT22;17567;48.382;9.102;2023-10-31T03:54:08;9.30;99.90
30851;DHT22;17567;48.382;9.102;2023-10-31T03:59:09;9.20;99.90
30851;DHT22;17567;48.382;9.102;2023-10-31T04:04:09;9.30;99.90
30851;DHT22;17567;48.382;9.102;2023-10-31T04:09:10;9.20;99.90
30851;DHT22;17567;48.382;9.102;2023-10-31T04:14:11;9.10;99.90
30851;DHT22;17567;48.382;9.102;2023-10-31T04:19:12;9.00;99.90
30851;DHT22;17567;48.382;9.102;2023-10-31T04:24:14;9.20;99.90
30851;DHT22;17567;48.382;9.102;2023-10-31T04:29:14;9.10;99.90
30851;DHT22;17567;48.382;9.102;2023-10-31T04:34:15;9.10;99.90
30851;DHT22;17567;48.382;9.102;2023-10-31T04:39:15;9.10;99.90
30851;DHT22;17567;48.382;9.102;2023-10-31T04:44:16;9.10;99.90
30851;DHT22;17567;48.382;9.102;2023-10-31T04:49:17;9.10;99.90
30851;DHT22;17567;48.382;9.102;2023-10-31T04:54:17;9.10;99.90
30851;DHT22;17567;48.382;9.102;2023-10-31T04:59:18;9.10;99.90
30851;DHT22;17567;48.382;9.102;2023-10-31T05:04:19;9.00;99.90
30851;DHT22;17567;48.382;9.102;2023-10-31T05:09:19;9.00;99.90
30851;DHT22;17567;48.382;9.102;2023-10-31T05:14:20;9.00;99.90
30851;DHT22;17567;48.382;9.102;2023-10-31T05:19:21;9.10;99.90
30851;DHT22;17567;48.382;9.102;2023-10-31T05:24:21;9.10;99.90
30851;DHT22;17567;48.382;9.102;2023-10-31T05:29:22;9.00;99.90
30851;DHT22;17567;48.382;9.102;2023-10-31T05:34:22;8.80;99.90
30851;DHT22;17567;48.382;9.102;2023-10-31T05:39:23;8.80;99.90
30851;DHT22;17567;48.382;9.102;2023-10-31T05:44:24;8.70;99.90
30851;DHT22;17567;48.382;9.102;2023-10-31T05:49:24;8.70;99.90
30851;DHT22;17567;48.382;9.102;2023-10-31T05:54:25;8.70;99.90
30851;DHT22;17567;48.382;9.102;2023-10-31T05:59:26;8.60;99.90
30851;DHT22;17567;48.382;9.102;2023-10-31T06:04:27;8.70;99.90
30851;DHT22;17567;48.382;9.102;2023-10-31T06:09:27;8.60;99.90
30851;DHT22;17567;48.382;9.102;2023-10-31T06:14:28;8.60;99.90
30851;DHT22;17567;48.382;9.102;2023-10-31T06:19:29;8.60;99.90
30851;DHT22;17567;48.382;9.102;2023-10-31T06:24:29;8.50;99.90
30851;DHT22;17567;48.382;9.102;2023-10-31T06:29:30;8.40;99.90
30851;DHT22;17567;48.382;9.102;2023-10-31T06:34:31;8.40;99.90
30851;DHT22;17567;48.382;9.102;2023-10-31T06:39:31;8.40;99.90
30851;DHT22;17567;48.382;9.102;2023-10-31T06:44:33;8.30;99.90
30851;DHT22;17567;48.382;9.102;2023-10-31T06:49:33;8.30;99.90
30851;DHT22;17567;48.382;9.102;2023-10-31T06:54:34;8.30;99.90
30851;DHT22;17567;48.382;9.102;2023-10-31T06:59:35;8.40;99.90
30851;DHT22;17567;48.382;9.102;2023-10-31T07:04:36;8.40;99.90
30851;DHT22;17567;48.382;9.102;2023-10-31T07:09:36;8.30;99.90
30851;DHT22;17567;48.382;9.102;2023-10-31T07:14:37;8.30;99.90
30851;DHT22;17567;48.382;9.102;2023-10-31T07:19:37;8.30;99.90
30851;DHT22;17567;48.382;9.102;2023-10-31T07:24:38;8.40;99.90
30851;DHT22;17567;48.382;9.102;2023-10-31T07:29:39;8.40;99.90
30851;DHT22;17567;48.382;9.102;2023-10-31T07:34:41;8.40;99.90
30851;DHT22;17567;48.382;9.102;2023-10-31T07:39:45;8.40;99.90
30851;DHT22;17567;48.382;9.102;2023-10-31T07:44:46;8.60;99.90
30851;DHT22;17567;48.382;9.102;2023-10-31T07:49:46;8.60;99.90
30851;DHT22;17567;48.382;9.102;2023-10-31T07:54:48;8.70;99.90
30851;DHT22;17567;48.382;9.102;2023-10-31T07:59:49;8.70;99.90
30851;DHT22;17567;48.382;9.102;2023-10-31T08:04:49;8.80;99.90
30851;DHT22;17567;48.382;9.102;2023-10-31T08:14:51;9.10;99.90
30851;DHT22;17567;48.382;9.102;2023-10-31T08:19:51;9.10;99.90
30851;DHT22;17567;48.382;9.102;2023-10-31T08:24:52;9.10;99.90
30851;DHT22;17567;48.382;9.102;2023-10-31T08:29:53;9.10;99.90
30851;DHT22;17567;48.382;9.102;2023-10-31T08:34:53;9.10;99.90
30851;DHT22;17567;48.382;9.102;2023-10-31T08:39:54;9.20;99.90
30851;DHT22;17567;48.382;9.102;2023-10-31T08:44:55;9.40;99.90
30851;DHT22;17567;48.382;9.102;2023-10-31T08:49:55;9.50;99.90
30851;DHT22;17567;48.382;9.102;2023-10-31T08:54:56;9.60;99.90
30851;DHT22;17567;48.382;9.102;2023-10-31T08:59:57;9.70;99.90
30851;DHT22;17567;48.382;9.102;2023-10-31T09:04:57;9.80;99.90
30851;DHT22;17567;48.382;9.102;2023-10-31T09:09:58;9.90;99.90
30851;DHT22;17567;48.382;9.102;2023-10-31T09:14:59;10.10;99.90
30851;DHT22;17567;48.382;9.102;2023-10-31T09:19:59;10.40;99.90
30851;DHT22;17567;48.382;9.102;2023-10-31T09:25:00;10.50;99.90
30851;DHT22;17567;48.382;9.102;2023-10-31T09:30:00;10.60;99.90
30851;DHT22;17567;48.382;9.102;2023-10-31T09:35:01;10.60;99.90
30851;DHT22;17567;48.382;9.102;2023-10-31T09:40:02;10.80;99.90
30851;DHT22;17567;48.382;9.102;2023-10-31T09:45:03;11.00;99.90
30851;DHT22;17567;48.382;9.102;2023-10-31T09:50:04;11.10;99.90
30851;DHT22;17567;48.382;9.102;2023-10-31T09:55:05;11.10;99.90
30851;DHT22;17567;48.382;9.102;2023-10-31T10:00:07;11.10;99.90
30851;DHT22;17567;48.382;9.102;2023-10-31T10:05:09;11.30;99.90
30851;DHT22;17567;48.382;9.102;2023-10-31T10:10:13;11.20;99.90
30851;DHT22;17567;48.382;9.102;2023-10-31T10:15:14;11.00;99.90
30851;DHT22;17567;48.382;9.102;2023-10-31T10:20:15;11.10;99.90
30851;DHT22;17567;48.382;9.102;2023-10-31T10:35:31;11.00;99.90
30851;DHT22;17567;48.382;9.102;2023-10-31T10:40:32;11.00;99.90
30851;DHT22;17567;48.382;9.102;2023-10-31T10:45:38;11.00;99.90
30851;DHT22;17567;48.382;9.102;2023-10-31T10:50:43;11.00;99.90
30851;DHT22;17567;48.382;9.102;2023-10-31T10:55:46;11.10;99.90
30851;DHT22;17567;48.382;9.102;2023-10-31T11:00:51;11.10;99.90
30851;DHT22;17567;48.382;9.102;2023-10-31T11:05:52;11.20;99.90
30851;DHT22;17567;48.382;9.102;2023-10-31T11:10:53;11.20;99.90
30851;DHT22;17567;48.382;9.102;2023-10-31T11:56:21;12.00;99.90
30851;DHT22;17567;48.382;9.102;2023-10-31T12:01:22;12.30;99.90
30851;DHT22;17567;48.382;9.102;2023-10-31T12:06:22;12.40;99.90
30851;DHT22;17567;48.382;9.102;2023-10-31T12:11:23;12.50;99.90
30851;DHT22;17567;48.382;9.102;2023-10-31T12:16:26;12.90;99.90
30851;DHT22;17567;48.382;9.102;2023-10-31T12:21:43;13.00;99.90
30851;DHT22;17567;48.382;9.102;2023-10-31T12:26:48;13.20;99.90
30851;DHT22;17567;48.382;9.102;2023-10-31T12:31:51;13.30;99.90
30851;DHT22;17567;48.382;9.102;2023-10-31T12:42:02;13.40;99.90
30851;DHT22;17567;48.382;9.102;2023-10-31T12:47:07;13.10;99.90
30851;DHT22;17567;48.382;9.102;2023-10-31T12:52:08;12.80;99.90
30851;DHT22;17567;48.382;9.102;2023-10-31T12:57:09;12.70;99.90
30851;DHT22;17567;48.382;9.102;2023-10-31T13:02:16;12.80;99.90
30851;DHT22;17567;48.382;9.102;2023-10-31T13:07:26;12.80;99.90
30851;DHT22;17567;48.382;9.102;2023-10-31T13:12:30;12.60;99.90
30851;DHT22;17567;48.382;9.102;2023-10-31T13:17:31;12.40;99.90
30851;DHT22;17567;48.382;9.102;2023-10-31T13:22:32;12.80;99.90
30851;DHT22;17567;48.382;9.102;2023-10-31T13:27:43;12.80;99.90
30851;DHT22;17567;48.382;9.102;2023-10-31T13:32:44;12.90;99.90
30851;DHT22;17567;48.382;9.102;2023-10-31T13:37:45;12.70;99.90
30851;DHT22;17567;48.382;9.102;2023-10-31T13:42:46;13.00;99.90
30851;DHT22;17567;48.382;9.102;2023-10-31T13:47:47;13.10;99.90
30851;DHT22;17567;48.382;9.102;2023-10-31T13:52:49;13.10;99.90
30851;DHT22;17567;48.382;9.102;2023-10-31T13:57:50;13.00;99.90
30851;DHT22;17567;48.382;9.102;2023-10-31T14:02:53;12.50;99.90
30851;DHT22;17567;48.382;9.102;2023-10-31T14:07:53;12.50;99.90
30851;DHT22;17567;48.382;9.102;2023-10-31T14:12:55;12.10;99.90
30851;DHT22;17567;48.382;9.102;2023-10-31T14:17:55;12.20;99.90
30851;DHT22;17567;48.382;9.102;2023-10-31T14:22:57;12.40;99.90
30851;DHT22;17567;48.382;9.102;2023-10-31T14:27:57;12.20;99.90
30851;DHT22;17567;48.382;9.102;2023-10-31T14:32:58;12.00;99.90
30851;DHT22;17567;48.382;9.102;2023-10-31T14:37:59;11.90;99.90
30851;DHT22;17567;48.382;9.102;2023-10-31T14:42:59;11.70;99.90
30851;DHT22;17567;48.382;9.102;2023-10-31T14:48:00;11.70;99.90
30851;DHT22;17567;48.382;9.102;2023-10-31T14:53:01;11.70;99.90
30851;DHT22;17567;48.382;9.102;2023-10-31T14:58:01;11.70;99.90
30851;DHT22;17567;48.382;9.102;2023-10-31T15:03:02;11.60;99.90
30851;DHT22;17567;48.382;9.102;2023-10-31T15:08:03;11.60;99.90
30851;DHT22;17567;48.382;9.102;2023-10-31T15:43:13;10.60;99.90
30851;DHT22;17567;48.382;9.102;2023-10-31T15:48:13;10.50;99.90
30851;DHT22;17567;48.382;9.102;2023-10-31T15:53:14;10.40;99.90
30851;DHT22;17567;48.382;9.102;2023-10-31T15:58:15;10.50;99.90
30851;DHT22;17567;48.382;9.102;2023-10-31T16:03:15;10.60;99.90
30851;DHT22;17567;48.382;9.102;2023-10-31T16:08:16;10.50;99.90
30851;DHT22;17567;48.382;9.102;2023-10-31T16:13:17;10.40;99.90
30851;DHT22;17567;48.382;9.102;2023-10-31T16:18:18;10.40;99.90
30851;DHT22;17567;48.382;9.102;2023-10-31T16:23:19;10.40;99.90
30851;DHT22;17567;48.382;9.102;2023-10-31T16:28:20;10.40;99.90
30851;DHT22;17567;48.382;9.102;2023-10-31T16:33:21;10.30;99.90
30851;DHT22;17567;48.382;9.102;2023-10-31T16:38:22;10.20;99.90
30851;DHT22;17567;48.382;9.102;2023-10-31T16:43:22;10.20;99.90
30851;DHT22;17567;48.382;9.102;2023-10-31T16:48:23;10.10;99.90
30851;DHT22;17567;48.382;9.102;2023-10-31T16:53:24;10.10;99.90
30851;DHT22;17567;48.382;9.102;2023-10-31T16:58:24;10.20;99.90
30851;DHT22;17567;48.382;9.102;2023-10-31T17:03:25;10.20;99.90
30851;DHT22;17567;48.382;9.102;2023-10-31T17:08:26;10.10;99.90
30851;DHT22;17567;48.382;9.102;2023-10-31T17:13:26;10.00;99.90
30851;DHT22;17567;48.382;9.102;2023-10-31T17:18:27;9.90;99.90
30851;DHT22;17567;48.382;9.102;2023-10-31T17:23:27;9.90;99.90
30851;DHT22;17567;48.382;9.102;2023-10-31T17:28:30;9.90;99.90
30851;DHT22;17567;48.382;9.102;2023-10-31T17:33:38;9.70;99.90
30851;DHT22;17567;48.382;9.102;2023-10-31T17:38:40;9.70;99.90
30851;DHT22;17567;48.382;9.102;2023-10-31T17:43:41;9.90;99.90
30851;DHT22;17567;48.382;9.102;2023-10-31T17:48:41;9.80;99.90
30851;DHT22;17567;48.382;9.102;2023-10-31T17:53:44;9.70;99.90
30851;DHT22;17567;48.382;9.102;2023-10-31T17:58:46;9.70;99.90
30851;DHT22;17567;48.382;9.102;2023-10-31T18:03:46;9.60;99.90
30851;DHT22;17567;48.382;9.102;2023-10-31T18:08:47;9.50;99.90
30851;DHT22;17567;48.382;9.102;2023-10-31T18:13:48;9.40;99.90
30851;DHT22;17567;48.382;9.102;2023-10-31T18:18:48;9.30;99.90
30851;DHT22;17567;48.382;9.102;2023-10-31T18:23:49;9.20;99.90
30851;DHT22;17567;48.382;9.102;2023-10-31T18:28:50;9.40;99.90
30851;DHT22;17567;48.382;9.102;2023-10-31T18:33:51;9.50;99.90
30851;DHT22;17567;48.382;9.102;2023-10-31T18:38:51;9.40;99.90
30851;DHT22;17567;48.382;9.102;2023-10-31T18:43:52;9.30;99.90
30851;DHT22;17567;48.382;9.102;2023-10-31T18:48:52;9.40;99.90
30851;DHT22;17567;48.382;9.102;2023-10-31T18:53:53;9.30;99.90
30851;DHT22;17567;48.382;9.102;2023-10-31T18:58:54;9.30;99.90
30851;DHT22;17567;48.382;9.102;2023-10-31T19:03:55;9.10;99.90
30851;DHT22;17567;48.382;9.102;2023-10-31T19:08:57;9.20;99.90
30851;DHT22;17567;48.382;9.102;2023-10-31T19:13:58;9.30;99.90
30851;DHT22;17567;48.382;9.102;2023-10-31T19:18:58;9.30;99.90
30851;DHT22;17567;48.382;9.102;2023-10-31T19:23:59;9.30;99.90
30851;DHT22;17567;48.382;9.102;2023-10-31T19:29:00;9.20;99.90
30851;DHT22;17567;48.382;9.102;2023-10-31T19:34:00;9.10;99.90
30851;DHT22;17567;48.382;9.102;2023-10-31T19:39:01;9.00;99.90
30851;DHT22;17567;48.382;9.102;2023-10-31T19:44:01;9.10;99.90
30851;DHT22;17567;48.382;9.102;2023-10-31T19:49:04;9.00;99.90
30851;DHT22;17567;48.382;9.102;2023-10-31T19:54:05;8.90;99.90
30851;DHT22;17567;48.382;9.102;2023-10-31T19:59:06;8.80;99.90
30851;DHT22;17567;48.382;9.102;2023-10-31T20:04:06;8.70;99.90
30851;DHT22;17567;48.382;9.102;2023-10-31T20:09:07;8.70;99.90
30851;DHT22;17567;48.382;9.102;2023-10-31T20:14:08;8.60;99.90
30851;DHT22;17567;48.382;9.102;2023-10-31T20:19:08;8.50;99.90
30851;DHT22;17567;48.382;9.102;2023-10-31T20:24:10;8.50;99.90
30851;DHT22;17567;48.382;9.102;2023-10-31T20:29:11;8.30;99.90
30851;DHT22;17567;48.382;9.102;2023-10-31T20:34:11;8.20;99.90
30851;DHT22;17567;48.382;9.102;2023-10-31T20:39:12;8.10;99.90
30851;DHT22;17567;48.382;9.102;2023-10-31T20:44:16;8.10;99.90
30851;DHT22;17567;48.382;9.102;2023-10-31T20:49:16;8.00;99.90
30851;DHT22;17567;48.382;9.102;2023-10-31T20:54:17;8.00;99.90
30851;DHT22;17567;48.382;9.102;2023-10-31T20:59:17;7.90;99.90
30851;DHT22;17567;48.382;9.102;2023-10-31T21:04:18;7.90;99.90
30851;DHT22;17567;48.382;9.102;2023-10-31T21:09:19;7.90;99.90
30851;DHT22;17567;48.382;9.102;2023-10-31T21:14:19;7.90;99.90
30851;DHT22;17567;48.382;9.102;2023-10-31T21:19:20;7.90;99.90
30851;DHT22;17567;48.382;9.102;2023-10-31T21:24:21;7.90;99.90
30851;DHT22;17567;48.382;9.102;2023-10-31T21:29:21;8.00;99.90
30851;DHT22;17567;48.382;9.102;2023-10-31T21:34:22;8.10;99.90
30851;DHT22;17567;48.382;9.102;2023-10-31T21:39:23;8.00;99.90
30851;DHT22;17567;48.382;9.102;2023-10-31T21:44:24;7.90;99.90
30851;DHT22;17567;48.382;9.102;2023-10-31T23:34:55;8.60;99.90
30851;DHT22;17567;48.382;9.102;2023-10-31T23:39:56;8.80;99.90
30851;DHT22;17567;48.382;9.102;2023-10-31T23:44:57;9.00;99.90
30851;DHT22;17567;48.382;9.102;2023-10-31T23:49:58;8.90;99.90
30851;DHT22;17567;48.382;9.102;2023-10-31T23:54:59;9.00;99.90
